Time;durP1;ratioP1;P1;durP2;ratioP2;P2;SDS_P1;SDS_P2;PMS_P1;PMS_P2;Temp;Humidity;BMP_temperature;BMP_pressure;BME280_temperature;BME280_humidity;BME280_pressure;Samples;Min_cycle;Max_cycle;Signal;HPM_P1;HPM_P2
2024/03/18 00:02:01;;;;;;;0.10;0.10;;;;;;;12.89;64.67;100271.25;7361323;19;20003;-59
2024/03/18 00:04:27;;;;;;;0.10;0.10;;;;;;;12.89;64.41;100276.50;7361035;19;20736;-59
2024/03/18 00:06:52;;;;;;;0.10;0.10;;;;;;;12.87;64.40;100273.91;7357958;19;20013;-60
2024/03/18 00:09:17;;;;;;;0.10;0.10;;;;;;;12.86;64.90;100268.75;7359590;19;20003;-60
2024/03/18 00:11:43;;;;;;;0.10;0.10;;;;;;;12.84;65.17;100268.81;7359274;19;20002;-59
2024/03/18 00:14:09;;;;;;;0.10;0.10;;;;;;;12.83;65.17;100268.88;7361656;19;20077;-60
2024/03/18 00:16:35;;;;;;;0.10;0.10;;;;;;;12.80;65.31;100261.13;7359865;19;20355;-60
2024/03/18 00:19:00;;;;;;;0.10;0.10;;;;;;;12.79;64.84;100264.69;7360936;19;20006;-59
2024/03/18 00:21:26;;;;;;;0.10;0.10;;;;;;;12.73;65.85;100261.38;7358909;19;20695;-59
2024/03/18 00:23:51;;;;;;;0.10;0.10;;;;;;;12.71;65.38;100263.19;7362679;19;20559;-60
2024/03/18 00:26:17;;;;;;;0.10;0.10;;;;;;;12.69;65.06;100270.25;7357376;19;20002;-59
2024/03/18 00:28:43;;;;;;;0.10;0.10;;;;;;;12.66;65.32;100270.38;7355967;19;20002;-59
2024/03/18 00:31:10;;;;;;;0.10;0.10;;;;;;;12.65;65.43;100268.66;7358842;19;20009;-59
2024/03/18 00:33:36;;;;;;;0.10;0.10;;;;;;;12.62;65.50;100263.56;7357637;19;20018;-59
2024/03/18 00:36:01;;;;;;;0.20;0.20;;;;;;;12.60;65.74;100265.38;7355869;19;20003;-59
2024/03/18 00:38:26;;;;;;;0.13;0.13;;;;;;;12.55;65.60;100262.06;7358766;19;20018;-58
2024/03/18 00:43:36;;;;;;;0.10;0.10;;;;;;;12.49;66.27;100275.41;7358763;19;20476;-60
2024/03/18 00:46:01;;;;;;;0.10;0.10;;;;;;;12.45;65.91;100265.94;7361282;19;20517;-59
2024/03/18 00:48:27;;;;;;;0.10;0.10;;;;;;;12.41;65.85;100275.66;7358009;19;20003;-59
2024/03/18 00:50:52;;;;;;;0.20;0.20;;;;;;;12.40;65.80;100273.13;7358562;19;20010;-60
2024/03/18 00:53:17;;;;;;;0.10;0.10;;;;;;;12.36;66.07;100271.50;7356572;19;20379;-59
2024/03/18 00:55:43;;;;;;;0.20;0.20;;;;;;;12.33;65.72;100282.97;7366904;19;20014;-60
2024/03/18 00:58:08;;;;;;;0.10;0.10;;;;;;;12.29;65.85;100267.44;7367927;19;19998;-58
2024/03/18 01:00:34;;;;;;;0.10;0.10;;;;;;;12.27;66.23;100277.13;7365370;19;20608;-60
2024/03/18 01:02:59;;;;;;;0.10;0.10;;;;;;;12.12;66.21;100261.06;7365668;19;20019;-59
2024/03/18 01:05:24;;;;;;;0.10;0.10;;;;;;;12.20;66.48;100279.06;7362183;19;20003;-59
2024/03/18 01:07:50;;;;;;;0.10;0.10;;;;;;;12.17;66.99;100282.69;7366057;19;20002;-59
2024/03/18 01:10:15;;;;;;;0.10;0.10;;;;;;;12.14;66.99;100277.53;7367603;19;20896;-59
2024/03/18 01:12:41;;;;;;;0.10;0.10;;;;;;;12.12;67.05;100273.28;7366923;19;20386;-60
2024/03/18 01:15:07;;;;;;;0.10;0.10;;;;;;;11.99;66.78;100257.16;7367488;19;19999;-60
2024/03/18 01:17:33;;;;;;;0.10;0.10;;;;;;;12.07;67.40;100280.44;7361305;19;19999;-59
2024/03/18 01:19:59;;;;;;;0.10;0.10;;;;;;;12.04;67.40;100281.41;7363282;19;20023;-59
2024/03/18 01:22:24;;;;;;;0.10;0.10;;;;;;;12.03;66.91;100286.69;7364568;19;20011;-58
2024/03/18 01:24:50;;;;;;;0.10;0.10;;;;;;;11.87;66.73;100262.84;7366521;19;20376;-59
2024/03/18 01:27:15;;;;;;;0.00;0.00;;;;;;;11.98;67.28;100289.47;7360866;19;20474;-60
2024/03/18 01:29:41;;;;;;;0.10;0.10;;;;;;;11.91;67.36;100285.34;7364716;19;20101;-59
2024/03/18 01:32:07;;;;;;;0.10;0.10;;;;;;;11.83;67.20;100266.47;7361479;19;20019;-59
2024/03/18 01:34:32;;;;;;;0.20;0.20;;;;;;;11.93;67.52;100296.63;7365450;19;20114;-59
2024/03/18 01:36:58;;;;;;;0.10;0.10;;;;;;;11.88;67.77;100290.69;7359953;19;19998;-59
2024/03/18 01:39:24;;;;;;;0.10;0.10;;;;;;;11.90;67.78;100301.94;7363192;19;20010;-59
2024/03/18 01:41:49;;;;;;;0.10;0.10;;;;;;;11.88;67.65;100306.41;7359959;19;20011;-59
2024/03/18 01:44:15;;;;;;;0.10;0.10;;;;;;;11.85;67.61;100296.88;7364066;19;20010;-59
2024/03/18 01:46:40;;;;;;;0.10;0.10;;;;;;;11.80;67.90;100287.44;7360978;19;20018;-59
2024/03/18 01:49:06;;;;;;;0.10;0.10;;;;;;;11.83;67.77;100300.47;7365177;19;20006;-58
2024/03/18 01:51:32;;;;;;;0.10;0.10;;;;;;;11.82;68.09;100301.38;7358953;19;19998;-60
2024/03/18 01:53:58;;;;;;;0.10;0.10;;;;;;;11.81;67.94;100310.06;7364651;19;20498;-59
2024/03/18 01:56:24;;;;;;;0.10;0.10;;;;;;;11.80;68.32;100311.00;7364600;19;19995;-59
2024/03/18 01:58:49;;;;;;;0.00;0.00;;;;;;;11.78;68.32;100311.06;7366543;19;20133;-59
2024/03/18 02:01:15;;;;;;;0.10;0.10;;;;;;;11.78;68.25;100316.28;7365696;19;20475;-58
2024/03/18 02:03:41;;;;;;;0.10;0.10;;;;;;;11.71;68.65;100309.56;7365495;19;20002;-60
2024/03/18 02:06:06;;;;;;;0.10;0.10;;;;;;;11.72;68.70;100294.72;7363980;19;20012;-59
2024/03/18 02:08:33;;;;;;;0.10;0.10;;;;;;;11.79;68.96;100311.91;7367299;19;20013;-59
2024/03/18 02:10:59;;;;;;;0.10;0.10;;;;;;;11.80;69.06;100308.38;7364524;19;20010;-57
2024/03/18 02:13:25;;;;;;;0.10;0.10;;;;;;;11.82;68.92;100307.47;7365904;19;20313;-60
2024/03/18 02:15:51;;;;;;;0.10;0.10;;;;;;;11.84;69.28;100302.16;7361438;19;20082;-58
2024/03/18 02:18:16;;;;;;;0.10;0.10;;;;;;;11.86;69.11;100302.97;7363625;19;20020;-59
2024/03/18 02:20:42;;;;;;;0.10;0.10;;;;;;;11.90;68.98;100307.19;7360575;19;20517;-59
2024/03/18 02:23:09;;;;;;;0.10;0.10;;;;;;;11.93;69.27;100305.31;7366894;19;20495;-59
2024/03/18 02:25:34;;;;;;;0.10;0.10;;;;;;;11.95;69.09;100303.50;7367503;19;20407;-59
2024/03/18 02:28:00;;;;;;;0.10;0.10;;;;;;;11.98;68.58;100312.16;7365777;19;20042;-58
2024/03/18 02:30:25;;;;;;;0.10;0.10;;;;;;;11.98;68.98;100314.78;7369053;19;20599;-57
2024/03/18 02:32:51;;;;;;;0.10;0.10;;;;;;;12.00;68.68;100326.91;7366362;19;20022;-59
2024/03/18 02:35:16;;;;;;;0.10;0.10;;;;;;;12.01;69.22;100312.88;7365081;19;20014;-59
2024/03/18 02:37:45;;;;;;;0.10;0.10;;;;;;;12.04;69.52;100317.19;7368511;19;20013;-59
2024/03/18 02:40:12;;;;;;;0.10;0.10;;;;;;;12.02;69.28;100314.63;7369220;19;20002;-58
2024/03/18 02:42:40;;;;;;;0.10;0.10;;;;;;;12.05;68.95;100319.75;7368978;19;20348;-58
2024/03/18 02:45:10;;;;;;;0.10;0.10;;;;;;;12.05;68.96;100314.50;7358129;19;20006;-59
2024/03/18 02:47:37;;;;;;;0.10;0.10;;;;;;;12.07;68.57;100317.09;7369543;19;20006;-58
2024/03/18 02:50:04;;;;;;;0.10;0.10;;;;;;;12.06;68.94;100318.81;7365986;19;20006;-59
2024/03/18 02:52:31;;;;;;;0.10;0.10;;;;;;;12.06;68.88;100313.59;7365836;19;20482;-58
2024/03/18 02:54:56;;;;;;;0.10;0.10;;;;;;;12.05;68.60;100317.13;7366943;19;20740;-59
2024/03/18 02:57:21;;;;;;;0.10;0.10;;;;;;;12.03;69.29;100321.56;7367127;19;20106;-59
2024/03/18 02:59:47;;;;;;;0.10;0.10;;;;;;;12.00;68.97;100316.41;7360450;19;20030;-60
2024/03/18 03:02:12;;;;;;;0.10;0.10;;;;;;;12.00;68.68;100313.81;7368447;19;20027;-60
2024/03/18 03:04:38;;;;;;;0.08;0.08;;;;;;;11.95;68.61;100311.34;7364728;19;20578;-59
2024/03/18 03:07:03;;;;;;;0.10;0.10;;;;;;;11.93;68.56;100320.16;7366234;19;20740;-58
2024/03/18 03:09:29;;;;;;;0.10;0.10;;;;;;;11.89;68.85;100329.03;7360056;19;20332;-58
2024/03/18 03:11:54;;;;;;;0.10;0.10;;;;;;;11.85;69.48;100316.94;7366182;19;20077;-59
2024/03/18 03:14:20;;;;;;;0.10;0.10;;;;;;;11.80;69.28;100313.59;7365423;19;20792;-59
2024/03/18 03:16:45;;;;;;;0.10;0.10;;;;;;;11.75;69.23;100316.38;7365568;19;20007;-59
2024/03/18 03:19:11;;;;;;;0.10;0.10;;;;;;;11.70;69.47;100323.53;7368275;19;20013;-58
2024/03/18 03:21:36;;;;;;;0.10;0.10;;;;;;;11.54;69.24;100301.41;7364476;19;20253;-58
2024/03/18 03:24:02;;;;;;;0.17;0.17;;;;;;;11.63;69.38;100317.66;7362009;19;20017;-59
2024/03/18 03:26:29;;;;;;;0.10;0.10;;;;;;;11.59;69.80;100325.63;7363128;19;20003;-57
2024/03/18 03:28:55;;;;;;;0.10;0.10;;;;;;;11.54;69.52;100323.16;7365374;19;20011;-59
2024/03/18 03:31:21;;;;;;;0.10;0.10;;;;;;;11.49;70.13;100325.09;7365644;19;20002;-59
2024/03/18 03:33:46;;;;;;;0.10;0.10;;;;;;;11.45;69.92;100328.69;7362897;19;20026;-59
2024/03/18 03:36:12;;;;;;;0.10;0.10;;;;;;;11.39;69.90;100326.28;7365068;19;20016;-59
2024/03/18 03:38:37;;;;;;;0.10;0.10;;;;;;;11.36;69.77;100334.25;7366106;19;20014;-60
2024/03/18 03:41:03;;;;;;;0.10;0.10;;;;;;;11.33;69.96;100337.78;7367068;19;20015;-59
2024/03/18 03:43:28;;;;;;;0.10;0.10;;;;;;;11.31;70.26;100336.16;7365773;19;19995;-59
2024/03/18 03:46:02;;;;;;;0.10;0.10;;;;;;;11.25;70.41;100325.88;7359804;19;20061;-59
2024/03/18 03:48:29;;;;;;;0.10;0.10;;;;;;;11.14;70.46;100319.22;7364562;19;20519;-59
2024/03/18 03:50:56;;;;;;;0.10;0.10;;;;;;;11.21;70.42;100334.72;7362652;19;20864;-59
2024/03/18 03:53:25;;;;;;;0.10;0.10;;;;;;;11.16;70.04;100334.88;7365489;19;20453;-58
2024/03/18 03:55:57;;;;;;;0.10;0.10;;;;;;;11.15;70.64;100326.19;7364225;19;20022;-57
2024/03/18 03:58:25;;;;;;;0.10;0.10;;;;;;;11.08;70.21;100329.00;7364883;19;20002;-58
2024/03/18 04:00:52;;;;;;;;;;;;;;;11.10;69.10;100327.19;7363851;19;21645;-58
2024/03/18 04:03:19;;;;;;;0.10;0.10;;;;;;;11.00;70.02;100324.03;7365810;19;19907;-58
2024/03/18 04:05:45;;;;;;;0.10;0.10;;;;;;;11.00;70.03;100331.88;7358277;19;20418;-58
2024/03/18 04:08:11;;;;;;;0.10;0.10;;;;;;;10.96;70.58;100325.03;7365463;19;20010;-58
2024/03/18 04:10:36;;;;;;;0.10;0.10;;;;;;;10.93;69.96;100330.31;7363847;19;20105;-59
2024/03/18 04:13:02;;;;;;;0.10;0.10;;;;;;;10.85;70.78;100324.50;7359120;19;20016;-57
2024/03/18 04:15:31;;;;;;;0.10;0.10;;;;;;;10.79;70.49;100322.88;7352307;19;20343;-58
2024/03/18 04:17:57;;;;;;;0.10;0.10;;;;;;;10.83;70.93;100328.88;7348260;19;20002;-59
2024/03/18 04:20:22;;;;;;;0.08;0.08;;;;;;;10.81;70.77;100330.69;7366027;19;20002;-58
2024/03/18 04:22:50;;;;;;;0.00;0.00;;;;;;;10.78;70.96;100334.25;7360218;19;20018;-58
2024/03/18 04:25:16;;;;;;;0.03;0.03;;;;;;;10.68;70.83;100319.75;7361323;19;20011;-59
2024/03/18 04:27:41;;;;;;;0.00;0.00;;;;;;;10.73;71.31;100327.44;7365454;19;20011;-58
2024/03/18 04:30:12;;;;;;;0.10;0.10;;;;;;;10.57;70.85;100307.00;7363023;19;20090;-60
2024/03/18 04:32:40;;;;;;;0.10;0.10;;;;;;;10.70;70.52;100330.16;7357564;19;20046;-58
2024/03/18 04:35:06;;;;;;;;;;;;;;;10.71;69.43;100329.25;7359180;19;20096;-59
2024/03/18 04:37:34;;;;;;;0.10;0.10;;;;;;;10.61;70.68;100329.53;7363671;19;20048;-58
2024/03/18 04:40:02;;;;;;;0.00;0.00;;;;;;;10.64;71.10;100334.66;7364934;19;20030;-59
2024/03/18 04:42:28;;;;;;;0.10;0.10;;;;;;;10.61;70.75;100333.88;7361822;19;20025;-59
2024/03/18 04:44:53;;;;;;;0.10;0.10;;;;;;;10.59;71.16;100339.16;7363093;19;20007;-59
2024/03/18 04:47:19;;;;;;;0.10;0.10;;;;;;;10.56;71.43;100331.41;7362849;19;20366;-59
2024/03/18 04:49:44;;;;;;;0.10;0.10;;;;;;;10.55;71.45;100334.94;7365496;19;20002;-58
2024/03/18 04:52:10;;;;;;;0.10;0.10;;;;;;;10.50;71.76;100330.75;7363752;19;20969;-58
2024/03/18 04:54:35;;;;;;;0.10;0.10;;;;;;;10.52;71.30;100335.00;7364453;19;19999;-59
2024/03/18 04:57:00;;;;;;;0.10;0.10;;;;;;;10.52;71.66;100339.38;7361726;19;20061;-59
2024/03/18 04:59:26;;;;;;;0.10;0.10;;;;;;;10.51;71.64;100342.88;7365219;19;20037;-58
2024/03/18 05:01:51;;;;;;;0.10;0.10;;;;;;;10.48;71.14;100343.81;7364491;19;20332;-59
2024/03/18 05:04:17;;;;;;;0.10;0.10;;;;;;;10.45;71.39;100346.53;7363759;19;20023;-59
2024/03/18 05:06:42;;;;;;;0.10;0.10;;;;;;;10.46;71.77;100345.63;7363983;19;19998;-59
2024/03/18 05:09:09;;;;;;;0.10;0.10;;;;;;;10.44;71.68;100336.09;7360437;19;20002;-58
2024/03/18 05:11:34;;;;;;;0.10;0.10;;;;;;;10.29;71.27;100316.50;7360788;19;20009;-59
2024/03/18 05:14:01;;;;;;;0.10;0.10;;;;;;;10.41;71.80;100342.28;7365207;19;20007;-59
2024/03/18 05:16:27;;;;;;;0.10;0.10;;;;;;;10.39;71.64;100346.66;7361433;19;20545;-59
2024/03/18 05:18:53;;;;;;;0.10;0.10;;;;;;;10.36;71.77;100344.16;7364384;19;20046;-59
2024/03/18 05:21:18;;;;;;;0.08;0.08;;;;;;;10.26;71.57;100327.91;7362884;19;20014;-58
2024/03/18 05:23:44;;;;;;;0.00;0.00;;;;;;;10.35;71.93;100355.50;7365754;19;20010;-58
2024/03/18 05:26:09;;;;;;;0.10;0.10;;;;;;;10.34;71.84;100356.38;7362583;19;19995;-59
2024/03/18 05:28:34;;;;;;;0.10;0.10;;;;;;;10.32;71.59;100358.19;7358619;19;20015;-60
2024/03/18 05:31:00;;;;;;;0.10;0.10;;;;;;;10.30;71.38;100354.78;7361711;19;19999;-59
2024/03/18 05:33:25;;;;;;;0.10;0.10;;;;;;;10.20;71.45;100342.84;7361461;19;20073;-60
2024/03/18 05:35:51;;;;;;;0.10;0.10;;;;;;;10.26;72.05;100366.19;7362683;19;20014;-59
2024/03/18 05:38:18;;;;;;;0.10;0.10;;;;;;;10.21;71.54;100352.38;7361616;19;20693;-59
2024/03/18 05:40:43;;;;;;;0.10;0.10;;;;;;;10.22;72.01;100356.69;7362191;19;20761;-59
2024/03/18 05:43:09;;;;;;;0.10;0.10;;;;;;;10.21;72.09;100355.00;7371395;19;20003;-58
2024/03/18 05:45:34;;;;;;;0.10;0.10;;;;;;;10.19;71.63;100361.97;7364495;19;20005;-59
2024/03/18 05:47:59;;;;;;;0.10;0.10;;;;;;;10.12;71.84;100356.06;7367904;19;20055;-59
2024/03/18 05:50:25;;;;;;;0.10;0.10;;;;;;;10.14;71.87;100364.75;7368229;19;20668;-59
2024/03/18 05:52:50;;;;;;;0.10;0.10;;;;;;;10.12;71.79;100356.94;7368774;19;20005;-59
2024/03/18 05:55:17;;;;;;;0.10;0.10;;;;;;;10.11;71.59;100356.97;7366702;19;20001;-59
2024/03/18 05:57:42;;;;;;;0.00;0.00;;;;;;;10.09;72.21;100362.25;7371082;19;20006;-57
2024/03/18 06:00:12;;;;;;;0.10;0.10;;;;;;;10.06;72.28;100367.53;7368594;19;20009;-59
2024/03/18 06:02:37;;;;;;;0.10;0.10;;;;;;;10.05;71.70;100367.59;7366943;19;20002;-59
2024/03/18 06:05:03;;;;;;;0.00;0.00;;;;;;;10.02;71.92;100360.69;7369267;19;20006;-59
2024/03/18 06:07:28;;;;;;;0.10;0.10;;;;;;;10.01;72.33;100366.78;7369000;19;19994;-59
2024/03/18 06:09:54;;;;;;;0.10;0.10;;;;;;;9.99;72.23;100371.22;7366975;19;20018;-59
2024/03/18 06:12:20;;;;;;;0.10;0.10;;;;;;;9.96;72.41;100365.22;7367090;19;20002;-60
2024/03/18 06:14:45;;;;;;;0.10;0.10;;;;;;;9.92;72.09;100358.34;7368166;19;20006;-59
2024/03/18 06:17:11;;;;;;;0.10;0.10;;;;;;;9.90;71.74;100361.00;7367534;19;20021;-59
2024/03/18 06:19:36;;;;;;;0.10;0.10;;;;;;;9.88;71.87;100365.38;7366163;19;20011;-59
2024/03/18 06:22:10;;;;;;;0.10;0.10;;;;;;;9.86;72.04;100364.56;7369094;19;20014;-59
2024/03/18 06:25:54;;;;;;;0.10;0.10;;;;;;;9.83;72.46;100362.03;7363675;19;20701;-59
2024/03/18 06:27:20;;;;;;;0.10;0.10;;;;;;;9.79;72.47;100371.72;7362091;19;20010;-59
2024/03/18 06:29:46;;;;;;;0.00;0.00;;;;;;;9.78;72.41;100366.50;7369058;19;20002;-59
2024/03/18 06:32:11;;;;;;;0.10;0.10;;;;;;;9.76;72.59;100376.13;7362169;19;20021;-57
2024/03/18 06:34:37;;;;;;;0.03;0.03;;;;;;;9.73;72.44;100368.38;7364582;19;20009;-57
2024/03/18 06:37:02;;;;;;;0.00;0.00;;;;;;;9.70;72.50;100360.66;7364598;19;20006;-59
2024/03/18 06:39:28;;;;;;;0.10;0.10;;;;;;;9.69;72.06;100361.53;7357004;19;20015;-60
2024/03/18 06:41:53;;;;;;;0.10;0.10;;;;;;;9.64;72.13;100364.25;7365753;19;20540;-59
2024/03/18 06:44:19;;;;;;;0.10;0.10;;;;;;;9.65;72.35;100365.13;7368528;19;20014;-59
2024/03/18 06:46:44;;;;;;;0.00;0.00;;;;;;;9.65;72.22;100367.72;7365847;19;20006;-58
2024/03/18 06:49:10;;;;;;;0.00;0.00;;;;;;;9.61;72.43;100362.56;7367351;19;20002;-60
2024/03/18 06:51:35;;;;;;;0.10;0.10;;;;;;;9.61;72.52;100366.94;7366084;19;19994;-59
2024/03/18 06:54:01;;;;;;;0.10;0.10;;;;;;;9.56;72.72;100360.97;7369546;19;20059;-59
2024/03/18 06:56:27;;;;;;;0.00;0.00;;;;;;;9.60;72.90;100365.22;7368238;19;20615;-59
2024/03/18 06:58:52;;;;;;;0.08;0.08;;;;;;;9.59;72.75;100369.59;7361446;19;20014;-58
2024/03/18 07:01:18;;;;;;;0.10;0.10;;;;;;;9.59;72.72;100380.00;7362556;19;20021;-59
2024/03/18 07:03:43;;;;;;;0.00;0.00;;;;;;;9.60;72.77;100379.09;7367828;19;20047;-58
2024/03/18 07:06:09;;;;;;;0.00;0.00;;;;;;;9.58;72.72;100383.50;7365797;19;19999;-59
2024/03/18 07:08:34;;;;;;;0.10;0.10;;;;;;;9.61;72.76;100385.19;7362551;19;20002;-58
2024/03/18 07:11:00;;;;;;;0.10;0.10;;;;;;;9.62;73.08;100392.94;7364168;19;20006;-59
2024/03/18 07:13:25;;;;;;;0.10;0.10;;;;;;;9.65;73.11;100393.78;7367241;19;20014;-59
2024/03/18 07:15:51;;;;;;;0.10;0.10;;;;;;;9.66;72.84;100387.69;7367718;19;20007;-59
2024/03/18 07:18:18;;;;;;;0.10;0.10;;;;;;;9.67;72.56;100390.25;7362306;19;20478;-58
2024/03/18 07:20:43;;;;;;;0.10;0.10;;;;;;;9.70;72.97;100399.75;7369445;19;20474;-59
2024/03/18 07:23:11;;;;;;;0.10;0.10;;;;;;;9.72;72.81;100393.59;7362816;19;19999;-59
2024/03/18 07:25:37;;;;;;;0.10;0.10;;;;;;;9.75;72.92;100397.91;7361990;19;20020;-58
2024/03/18 07:28:02;;;;;;;0.10;0.10;;;;;;;9.78;72.59;100392.59;7366538;19;20490;-58
2024/03/18 07:30:28;;;;;;;0.10;0.10;;;;;;;9.83;72.58;100395.94;7366940;19;19999;-59
2024/03/18 07:32:54;;;;;;;0.10;0.10;;;;;;;9.86;72.57;100388.06;7364347;19;20014;-59
2024/03/18 07:35:19;;;;;;;0.10;0.10;;;;;;;9.89;72.77;100390.59;7360136;19;20435;-59
2024/03/18 07:37:45;;;;;;;0.10;0.10;;;;;;;9.94;72.92;100398.31;7365172;19;20003;-59
2024/03/18 07:40:11;;;;;;;0.10;0.10;;;;;;;9.99;72.84;100401.66;7362589;19;20003;-59
2024/03/18 07:42:39;;;;;;;0.00;0.00;;;;;;;9.99;72.90;100386.00;7361454;19;20049;-57
2024/03/18 07:45:05;;;;;;;;;;;;;;;10.11;71.90;100391.75;7364761;19;20013;-59
2024/03/18 07:47:30;;;;;;;0.10;0.10;;;;;;;10.13;72.32;100389.94;7365806;19;20319;-59
2024/03/18 07:49:56;;;;;;;0.10;0.10;;;;;;;10.19;72.41;100395.91;7363633;19;20021;-59
2024/03/18 07:52:21;;;;;;;0.10;0.10;;;;;;;10.22;72.46;100388.88;7363037;19;20002;-59
2024/03/18 07:54:47;;;;;;;0.05;0.05;;;;;;;10.27;72.42;100378.34;7363519;19;20520;-59
2024/03/18 07:57:13;;;;;;;0.10;0.10;;;;;;;10.32;72.26;100384.28;7364631;19;20006;-59
2024/03/18 07:59:38;;;;;;;0.10;0.10;;;;;;;10.37;72.62;100382.41;7364506;19;20007;-59
2024/03/18 08:02:05;;;;;;;0.10;0.10;;;;;;;10.42;72.43;100380.53;7363788;19;20016;-59
2024/03/18 08:04:30;;;;;;;0.10;0.10;;;;;;;10.49;72.13;100381.22;7365172;19;20013;-59
2024/03/18 08:06:55;;;;;;;0.10;0.10;;;;;;;10.53;72.06;100367.19;7360991;19;20066;-59
2024/03/18 08:09:21;;;;;;;0.10;0.10;;;;;;;10.64;72.33;100376.44;7366660;19;20086;-59
2024/03/18 08:11:48;;;;;;;0.08;0.08;;;;;;;10.75;72.22;100383.13;7360893;19;20007;-58
2024/03/18 08:14:14;;;;;;;0.00;0.00;;;;;;;10.69;72.06;100352.78;7366617;19;20074;-59
2024/03/18 08:16:40;;;;;;;0.10;0.10;;;;;;;10.94;72.14;100373.81;7360742;19;19999;-59
2024/03/18 08:19:06;;;;;;;0.10;0.10;;;;;;;11.04;71.83;100374.41;7362901;19;20005;-59
2024/03/18 08:21:32;;;;;;;0.10;0.10;;;;;;;11.01;71.86;100344.03;7361431;19;19995;-58
2024/03/18 08:23:58;;;;;;;0.10;0.10;;;;;;;11.26;71.30;100357.19;7359731;19;20006;-59
2024/03/18 08:26:24;;;;;;;0.10;0.10;;;;;;;11.33;71.31;100360.47;7363074;19;20455;-59
2024/03/18 08:28:49;;;;;;;0.10;0.10;;;;;;;11.33;70.97;100339.56;7362372;19;20003;-59
2024/03/18 08:31:16;;;;;;;0.10;0.10;;;;;;;11.66;70.95;100369.88;7364875;19;20757;-59
2024/03/18 08:33:41;;;;;;;0.10;0.10;;;;;;;11.80;70.83;100365.94;7358908;19;20753;-59
2024/03/18 08:36:07;;;;;;;0.10;0.10;;;;;;;11.94;70.50;100368.97;7361772;19;20010;-60
2024/03/18 08:38:33;;;;;;;0.10;0.10;;;;;;;12.05;69.85;100361.59;7361418;19;20011;-58
2024/03/18 08:40:58;;;;;;;0.10;0.10;;;;;;;12.22;70.44;100362.81;7363674;19;20014;-59
2024/03/18 08:43:24;;;;;;;0.10;0.10;;;;;;;12.37;69.33;100363.13;7358896;19;20002;-59
2024/03/18 08:45:53;;;;;;;0.10;0.10;;;;;;;12.55;69.38;100351.13;7364987;19;20589;-59
2024/03/18 08:48:20;;;;;;;0.10;0.10;;;;;;;12.70;69.00;100355.81;7364623;19;20003;-60
2024/03/18 08:50:45;;;;;;;0.10;0.10;;;;;;;12.73;68.34;100334.75;7363024;19;20395;-60
2024/03/18 08:53:12;;;;;;;0.10;0.10;;;;;;;13.09;68.58;100362.22;7362593;19;20071;-60
2024/03/18 08:55:38;;;;;;;0.10;0.10;;;;;;;13.29;67.85;100358.88;7363113;19;20017;-60
2024/03/18 08:58:03;;;;;;;0.10;0.10;;;;;;;13.45;67.40;100368.69;7352691;19;20007;-60
2024/03/18 09:00:29;;;;;;;0.10;0.10;;;;;;;13.64;67.18;100360.94;7360707;19;20014;-60
2024/03/18 09:02:54;;;;;;;0.10;0.10;;;;;;;13.87;67.02;100375.72;7359043;19;20817;-60
2024/03/18 09:05:20;;;;;;;0.10;0.10;;;;;;;13.97;67.23;100348.16;7364614;19;20017;-59
2024/03/18 09:07:45;;;;;;;0.10;0.10;;;;;;;14.35;66.38;100360.59;7361057;19;20616;-60
2024/03/18 09:10:12;;;;;;;0.10;0.10;;;;;;;14.52;65.56;100339.69;7362949;19;20388;-60
2024/03/18 09:12:39;;;;;;;0.20;0.20;;;;;;;14.74;64.76;100342.19;7360297;19;20076;-60
2024/03/18 09:15:05;;;;;;;0.13;0.13;;;;;;;15.03;63.66;100348.75;7363932;19;20007;-60
2024/03/18 09:17:30;;;;;;;0.10;0.10;;;;;;;15.23;63.03;100350.44;7371300;19;20041;-60
2024/03/18 09:19:55;;;;;;;0.10;0.10;;;;;;;15.31;63.11;100341.28;7362843;19;20471;-60
2024/03/18 09:22:21;;;;;;;0.10;0.10;;;;;;;15.52;62.10;100364.84;7342789;19;20010;-58
2024/03/18 09:24:46;;;;;;;0.10;0.10;;;;;;;15.66;61.17;100354.53;7352425;19;20034;-60
2024/03/18 09:27:12;;;;;;;0.10;0.10;;;;;;;15.80;60.73;100356.47;7356325;19;20013;-61
2024/03/18 09:29:38;;;;;;;0.10;0.10;;;;;;;15.95;61.11;100358.31;7361292;19;20014;-60
2024/03/18 09:32:03;;;;;;;0.10;0.10;;;;;;;16.10;60.23;100335.63;7365562;19;20362;-60
2024/03/18 09:34:29;;;;;;;0.10;0.10;;;;;;;16.26;60.43;100347.06;7364203;19;20021;-60
2024/03/18 09:36:55;;;;;;;0.10;0.10;;;;;;;16.48;59.34;100346.81;7365322;19;20015;-60
2024/03/18 09:39:21;;;;;;;0.10;0.10;;;;;;;16.71;58.53;100342.09;7366607;19;20485;-60
2024/03/18 09:41:52;;;;;;;0.10;0.10;;;;;;;17.01;59.76;100344.88;7366853;19;19999;-60
2024/03/18 09:44:17;;;;;;;0.10;0.10;;;;;;;17.06;58.41;100327.03;7369438;19;20435;-59
2024/03/18 09:46:43;;;;;;;0.10;0.10;;;;;;;17.44;57.77;100350.44;7368264;19;20424;-60
2024/03/18 09:49:22;;;;;;;0.10;0.10;;;;;;;17.79;61.73;100348.41;7365472;19;20002;-61
2024/03/18 09:51:48;;;;;;;0.10;0.10;;;;;;;17.92;56.63;100337.97;7368111;19;20402;-61
2024/03/18 09:54:19;;;;;;;0.10;0.10;;;;;;;18.24;57.26;100350.13;7365625;19;20010;-60
2024/03/18 09:56:51;;;;;;;0.10;0.10;;;;;;;18.36;56.13;100349.41;7365379;19;20010;-60
2024/03/18 09:59:16;;;;;;;0.10;0.10;;;;;;;18.59;54.01;100334.75;7368994;19;20474;-61
2024/03/18 10:01:42;;;;;;;0.10;0.10;;;;;;;18.74;54.03;100327.69;7366643;19;19998;-60
2024/03/18 10:04:07;;;;;;;0.10;0.10;;;;;;;18.93;53.33;100330.88;7364671;19;20010;-61
2024/03/18 10:06:33;;;;;;;0.10;0.10;;;;;;;19.14;53.41;100341.06;7367832;19;20032;-61
2024/03/18 10:08:59;;;;;;;0.10;0.10;;;;;;;19.30;53.31;100333.81;7365799;19;20010;-61
2024/03/18 10:11:24;;;;;;;0.10;0.10;;;;;;;19.45;51.42;100339.91;7361234;19;20363;-61
2024/03/18 10:13:50;;;;;;;0.10;0.10;;;;;;;19.57;50.60;100348.88;7363934;19;20013;-61
2024/03/18 10:16:15;;;;;;;0.10;0.10;;;;;;;19.62;50.96;100331.75;7365958;19;20462;-61
2024/03/18 10:18:40;;;;;;;0.10;0.10;;;;;;;19.62;50.73;100336.22;7364668;19;20513;-61
2024/03/18 10:21:08;;;;;;;0.10;0.10;;;;;;;19.61;50.40;100334.50;7363809;19;20009;-60
2024/03/18 10:23:33;;;;;;;0.10;0.10;;;;;;;19.46;49.69;100325.72;7362317;19;20881;-60
2024/03/18 10:26:01;;;;;;;0.10;0.10;;;;;;;19.38;50.56;100318.28;7359002;19;19999;-58
2024/03/18 10:28:26;;;;;;;0.10;0.10;;;;;;;19.24;50.36;100310.38;7362741;19;20002;-60
2024/03/18 10:30:55;;;;;;;0.10;0.10;;;;;;;19.22;50.57;100312.31;7360473;19;20537;-60
2024/03/18 10:33:22;;;;;;;0.10;0.10;;;;;;;19.25;49.94;100306.78;7363340;19;20006;-61
2024/03/18 10:35:48;;;;;;;0.10;0.10;;;;;;;19.22;50.59;100295.56;7362589;19;20677;-61
2024/03/18 10:38:23;;;;;;;0.20;0.20;;;;;;;19.34;52.88;100303.53;7363754;19;20042;-60
2024/03/18 10:40:52;;;;;;;0.10;0.10;;;;;;;19.43;51.65;100310.06;7362166;19;20789;-61
2024/03/18 10:43:35;;;;;;;0.10;0.10;;;;;;;19.55;52.19;100311.03;7364939;19;20013;-60
2024/03/18 10:46:02;;;;;;;0.10;0.10;;;;;;;19.63;51.77;100300.81;7360354;19;20007;-61
2024/03/18 10:48:28;;;;;;;0.15;0.15;;;;;;;19.80;49.80;100303.16;7361190;19;20038;-60
2024/03/18 10:50:55;;;;;;;0.10;0.10;;;;;;;19.89;50.22;100291.97;7363500;19;20596;-60
2024/03/18 10:53:22;;;;;;;0.10;0.10;;;;;;;20.04;49.23;100294.53;7359823;19;20077;-60
2024/03/18 10:55:49;;;;;;;0.10;0.10;;;;;;;19.96;48.10;100277.31;7358612;19;20021;-60
2024/03/18 10:58:16;;;;;;;0.10;0.10;;;;;;;20.07;48.04;100294.28;7362395;19;20038;-60
2024/03/18 11:00:42;;;;;;;0.20;0.20;;;;;;;20.04;48.04;100299.81;7364650;19;20003;-60
2024/03/18 11:03:13;;;;;;;0.10;0.10;;;;;;;20.02;48.93;100289.34;7338897;19;20002;-60
2024/03/18 11:05:51;;;;;;;0.10;0.10;;;;;;;20.00;50.33;100287.72;7365278;19;20012;-59
2024/03/18 11:08:21;;;;;;;0.10;0.10;;;;;;;19.98;49.44;100279.88;7361587;19;20058;-60
2024/03/18 11:10:49;;;;;;;0.10;0.10;;;;;;;19.92;49.18;100274.97;7361998;19;20014;-60
2024/03/18 11:13:20;;;;;;;0.10;0.10;;;;;;;19.92;49.73;100280.28;7368099;19;20364;-60
2024/03/18 11:15:48;;;;;;;0.10;0.10;;;;;;;19.80;47.27;100275.84;7362994;19;20778;-61
2024/03/18 11:18:21;;;;;;;0.10;0.10;;;;;;;19.63;49.35;100269.88;7366264;19;20656;-60
2024/03/18 11:20:50;;;;;;;0.20;0.20;;;;;;;19.43;48.83;100279.13;7360404;19;20003;-59
2024/03/18 11:23:17;;;;;;;0.10;0.10;;;;;;;19.24;47.57;100268.03;7363042;19;20014;-60
2024/03/18 11:25:43;;;;;;;0.10;0.10;;;;;;;19.08;48.95;100272.63;7365041;19;20634;-60